createdAt,value
2022-11-27T00:01:29.157Z,4.88
2022-11-27T00:03:56.892Z,4.90
2022-11-27T00:06:27.980Z,4.79
2022-11-27T00:08:57.880Z,4.86
2022-11-27T00:11:27.221Z,4.84
2022-11-27T00:13:54.152Z,4.89
2022-11-27T00:16:22.790Z,4.81
2022-11-27T00:18:49.974Z,4.80
2022-11-27T00:21:24.228Z,4.80
2022-11-27T00:23:53.248Z,4.81
2022-11-27T00:26:20.475Z,4.82
2022-11-27T00:28:47.788Z,4.85
2022-11-27T00:31:18.528Z,4.83
2022-11-27T00:33:45.976Z,4.74
2022-11-27T00:36:14.430Z,4.83
2022-11-27T00:38:41.837Z,4.86
2022-11-27T00:41:12.774Z,4.84
2022-11-27T00:43:44.586Z,4.81
2022-11-27T00:46:29.353Z,4.87
2022-11-27T00:48:58.269Z,4.64
2022-11-27T00:51:25.967Z,4.88
2022-11-27T00:53:54.208Z,4.89
2022-11-27T00:56:27.734Z,4.84
2022-11-27T00:58:55.388Z,4.83
2022-11-27T01:01:29.246Z,4.90
2022-11-27T01:03:58.861Z,4.89
2022-11-27T01:06:27.054Z,4.93
2022-11-27T01:08:54.013Z,4.93
2022-11-27T01:11:25.840Z,4.59
2022-11-27T01:13:53.722Z,4.94
2022-11-27T01:16:23.647Z,4.96
2022-11-27T01:18:51.818Z,4.85
2022-11-27T01:21:21.129Z,4.67
2022-11-27T01:23:49.243Z,4.95
2022-11-27T01:26:17.632Z,4.79
2022-11-27T01:28:44.942Z,4.73
2022-11-27T01:31:22.087Z,4.74
2022-11-27T01:33:54.647Z,4.71
2022-11-27T01:36:22.125Z,4.75
2022-11-27T01:38:48.939Z,4.65
2022-11-27T01:41:26.021Z,4.72
2022-11-27T01:44:00.571Z,4.72
2022-11-27T01:46:37.650Z,4.68
2022-11-27T01:49:10.665Z,4.72
2022-11-27T01:51:41.734Z,4.76
2022-11-27T01:54:10.555Z,4.83
2022-11-27T01:56:38.990Z,4.53
2022-11-27T01:59:06.134Z,4.56
2022-11-27T02:01:33.026Z,4.62
2022-11-27T02:04:01.914Z,4.57
2022-11-27T02:06:29.075Z,4.52
2022-11-27T02:08:56.632Z,4.69
2022-11-27T02:11:50.214Z,4.62
2022-11-27T02:14:36.043Z,4.49
2022-11-27T02:17:26.734Z,4.44
2022-11-27T02:20:21.156Z,4.45
2022-11-27T02:23:32.592Z,4.39
2022-11-27T02:26:38.781Z,4.40
2022-11-27T02:29:11.715Z,4.42
2022-11-27T02:32:07.466Z,4.37
2022-11-27T02:34:47.282Z,4.35
2022-11-27T02:37:37.195Z,4.34
2022-11-27T02:40:12.026Z,4.33
2022-11-27T02:42:44.376Z,4.39
2022-11-27T02:45:15.065Z,4.35
2022-11-27T02:47:45.219Z,4.32
2022-11-27T02:50:21.702Z,4.27
2022-11-27T02:52:50.775Z,4.37
2022-11-27T02:55:23.538Z,4.35
2022-11-27T02:57:53.468Z,4.32
2022-11-27T03:00:20.547Z,4.33
2022-11-27T03:02:54.224Z,4.27
2022-11-27T03:05:24.654Z,4.41
2022-11-27T03:08:30.875Z,4.27
2022-11-27T03:11:07.772Z,4.37
2022-11-27T03:13:39.486Z,4.27
2022-11-27T03:16:39.442Z,4.24
2022-11-27T03:19:46.211Z,4.30
2022-11-27T03:22:13.393Z,4.25
2022-11-27T03:24:40.674Z,4.21
2022-11-27T03:27:09.503Z,3.94
2022-11-27T03:29:58.434Z,4.12
2022-11-27T03:32:27.751Z,4.20
2022-11-27T03:34:55.426Z,4.15
2022-11-27T03:37:23.146Z,4.18
2022-11-27T03:39:50.947Z,4.10
2022-11-27T03:42:31.507Z,4.13
2022-11-27T03:45:28.146Z,4.12
2022-11-27T03:48:21.123Z,4.13
2022-11-27T03:51:54.310Z,4.15
2022-11-27T03:54:39.204Z,4.17
2022-11-27T03:57:18.409Z,4.21
2022-11-27T03:59:49.870Z,4.24
2022-11-27T04:02:28.553Z,4.00
2022-11-27T04:04:55.428Z,4.20
2022-11-27T04:07:22.347Z,4.09
2022-11-27T04:09:49.213Z,4.17
2022-11-27T04:12:15.967Z,4.26
2022-11-27T04:14:42.861Z,3.94
2022-11-27T04:17:09.766Z,4.05
2022-11-27T04:19:36.597Z,4.09
2022-11-27T04:22:03.358Z,4.13
2022-11-27T04:24:30.263Z,3.97
2022-11-27T04:26:57.046Z,4.02
2022-11-27T04:29:23.887Z,3.98
2022-11-27T04:31:50.712Z,4.02
2022-11-27T04:34:17.600Z,4.03
2022-11-27T04:36:46.121Z,4.08
2022-11-27T04:39:13.531Z,4.11
2022-11-27T04:41:40.295Z,3.97
2022-11-27T04:44:07.058Z,3.94
2022-11-27T04:46:34.424Z,4.00
2022-11-27T04:49:01.257Z,3.92
2022-11-27T04:51:28.125Z,3.98
2022-11-27T04:53:55.050Z,3.92
2022-11-27T04:56:22.030Z,3.99
2022-11-27T04:58:48.826Z,3.95
2022-11-27T05:01:15.932Z,3.87
2022-11-27T05:03:42.801Z,3.74
2022-11-27T05:06:09.852Z,3.68
2022-11-27T05:08:36.632Z,3.58
2022-11-27T05:11:07.109Z,3.53
2022-11-27T05:13:34.568Z,3.48
2022-11-27T05:16:01.588Z,3.33
2022-11-27T05:18:28.480Z,3.39
2022-11-27T05:21:08.524Z,3.13
2022-11-27T05:23:35.583Z,3.21
2022-11-27T05:26:03.444Z,3.33
2022-11-27T05:28:30.434Z,3.37
2022-11-27T05:30:57.364Z,3.25
2022-11-27T05:33:24.165Z,3.40
2022-11-27T05:35:50.975Z,3.41
2022-11-27T05:38:17.741Z,3.39
2022-11-27T05:40:44.549Z,3.30
2022-11-27T05:43:11.419Z,3.30
2022-11-27T05:45:38.409Z,3.22
2022-11-27T05:48:05.316Z,3.16
2022-11-27T05:50:33.485Z,3.17
2022-11-27T05:53:00.247Z,3.30
2022-11-27T05:55:27.161Z,3.27
2022-11-27T05:57:54.191Z,3.29
2022-11-27T06:00:21.226Z,3.22
2022-11-27T06:02:48.099Z,3.37
2022-11-27T06:05:15.161Z,3.37
2022-11-27T06:07:42.079Z,3.45
2022-11-27T06:10:09.328Z,3.36
2022-11-27T06:12:36.227Z,3.30
2022-11-27T06:15:03.904Z,3.35
2022-11-27T06:17:30.652Z,3.51
2022-11-27T06:19:57.528Z,3.49
2022-11-27T06:22:24.342Z,3.39
2022-11-27T06:24:51.167Z,3.31
2022-11-27T06:27:17.945Z,3.32
2022-11-27T06:29:44.722Z,3.30
2022-11-27T06:32:12.092Z,3.33
2022-11-27T06:34:39.349Z,3.37
2022-11-27T06:37:11.803Z,3.35
2022-11-27T06:39:39.928Z,3.40
2022-11-27T06:42:06.905Z,3.49
2022-11-27T06:44:33.686Z,3.55
2022-11-27T06:47:00.513Z,3.67
2022-11-27T06:49:27.343Z,3.64
2022-11-27T06:51:54.131Z,3.56
2022-11-27T06:54:21.028Z,3.64
2022-11-27T06:56:50.358Z,3.56
2022-11-27T06:59:17.567Z,3.53
2022-11-27T07:01:44.948Z,3.55
2022-11-27T07:04:14.779Z,3.47
2022-11-27T07:06:42.666Z,3.57
2022-11-27T07:09:10.180Z,3.52
2022-11-27T07:11:39.213Z,3.52
2022-11-27T07:14:06.881Z,3.54
2022-11-27T07:16:36.480Z,3.64
2022-11-27T07:19:07.611Z,3.55
2022-11-27T07:21:38.037Z,3.52
2022-11-27T07:24:05.128Z,3.35
2022-11-27T07:26:31.987Z,3.55
2022-11-27T07:28:58.766Z,3.49
2022-11-27T07:31:30.040Z,3.62
2022-11-27T07:33:57.310Z,3.64
2022-11-27T07:36:30.031Z,3.62
2022-11-27T07:38:58.070Z,3.63
2022-11-27T07:41:30.568Z,3.63
2022-11-27T07:43:59.263Z,3.66
2022-11-27T07:46:26.141Z,3.69
2022-11-27T07:48:53.103Z,3.55
2022-11-27T07:51:21.318Z,3.62
2022-11-27T07:53:51.511Z,3.70
2022-11-27T07:56:19.485Z,3.58
2022-11-27T07:58:46.728Z,3.56
2022-11-27T08:01:16.927Z,3.51
2022-11-27T08:03:44.338Z,3.50
2022-11-27T08:06:19.581Z,3.61
2022-11-27T08:08:46.638Z,3.59
2022-11-27T08:11:26.952Z,3.55
2022-11-27T08:14:03.619Z,3.54
2022-11-27T08:16:32.033Z,3.47
2022-11-27T08:18:58.939Z,3.41
2022-11-27T08:21:27.111Z,3.46
2022-11-27T08:23:54.241Z,3.53
2022-11-27T08:26:21.237Z,3.52
2022-11-27T08:28:48.261Z,3.40
2022-11-27T08:31:15.771Z,3.62
2022-11-27T08:33:42.669Z,3.62
2022-11-27T08:36:14.928Z,3.57
2022-11-27T08:38:44.294Z,3.49
2022-11-27T08:41:11.138Z,3.53
2022-11-27T08:43:38.023Z,3.58
2022-11-27T08:46:07.153Z,3.58
2022-11-27T08:48:34.096Z,3.67
2022-11-27T08:51:07.215Z,3.66
2022-11-27T08:53:34.595Z,3.69
2022-11-27T08:56:17.234Z,3.63
2022-11-27T08:58:44.553Z,3.59
2022-11-27T09:01:17.224Z,3.65
2022-11-27T09:03:44.287Z,3.74
2022-11-27T09:06:17.113Z,3.66
2022-11-27T09:08:44.712Z,3.73
2022-11-27T09:11:14.057Z,3.81
2022-11-27T09:13:41.933Z,3.82
2022-11-27T09:16:16.435Z,3.95
2022-11-27T09:18:48.524Z,3.92
2022-11-27T09:21:18.223Z,3.84
2022-11-27T09:23:45.423Z,3.87
2022-11-27T09:26:17.360Z,3.80
2022-11-27T09:28:45.054Z,3.80
2022-11-27T09:31:15.168Z,3.82
2022-11-27T09:33:43.345Z,3.77
2022-11-27T09:36:23.151Z,3.85
2022-11-27T09:38:51.071Z,3.75
2022-11-27T09:41:57.385Z,3.87
2022-11-27T09:44:58.985Z,3.89
2022-11-27T09:47:42.522Z,3.89
2022-11-27T09:50:19.779Z,4.02
2022-11-27T09:52:56.007Z,3.99
2022-11-27T09:55:44.975Z,4.11
2022-11-27T09:58:35.447Z,4.18
2022-11-27T10:01:13.137Z,4.16
2022-11-27T10:03:45.374Z,4.18
2022-11-27T10:06:26.185Z,4.12
2022-11-27T10:09:23.061Z,4.18
2022-11-27T10:12:33.380Z,4.20
2022-11-27T10:15:35.406Z,4.23
2022-11-27T10:18:29.484Z,4.45
2022-11-27T10:21:05.234Z,4.48
2022-11-27T10:24:03.520Z,4.52
2022-11-27T10:26:45.767Z,4.65
2022-11-27T10:29:27.488Z,4.64
2022-11-27T10:31:58.060Z,4.55
2022-11-27T10:34:59.620Z,4.67
2022-11-27T10:37:38.706Z,4.69
2022-11-27T10:40:14.617Z,4.75
2022-11-27T10:43:17.218Z,4.81
2022-11-27T10:45:59.582Z,4.78
2022-11-27T10:48:28.448Z,4.78
2022-11-27T10:50:55.830Z,4.95
2022-11-27T10:53:32.918Z,4.98
2022-11-27T10:56:11.806Z,4.97
2022-11-27T10:58:56.542Z,4.99
2022-11-27T11:01:27.001Z,4.94
2022-11-27T11:04:35.901Z,5.07
2022-11-27T11:06:58.887Z,5.12
2022-11-27T11:09:32.747Z,5.17
2022-11-27T11:12:21.196Z,5.21
2022-11-27T11:15:00.503Z,5.17
2022-11-27T11:17:34.525Z,5.19
2022-11-27T11:20:29.920Z,5.27
2022-11-27T11:22:56.799Z,5.30
2022-11-27T11:25:23.656Z,5.39
2022-11-27T11:27:51.471Z,5.27
2022-11-27T11:30:28.600Z,5.44
2022-11-27T11:33:03.787Z,5.47
2022-11-27T11:35:34.702Z,5.51
2022-11-27T11:38:05.592Z,5.54
2022-11-27T11:40:35.570Z,5.57
2022-11-27T11:43:24.173Z,5.60
2022-11-27T11:45:51.055Z,5.65
2022-11-27T11:48:25.148Z,5.71
2022-11-27T11:51:06.302Z,5.77
2022-11-27T11:53:36.686Z,5.81
2022-11-27T11:56:16.078Z,5.85
2022-11-27T11:59:17.701Z,5.91
2022-11-27T12:02:34.873Z,5.97
2022-11-27T12:05:46.054Z,6.03
2022-11-27T12:08:30.637Z,6.09
2022-11-27T12:11:30.533Z,6.12
2022-11-27T12:14:11.362Z,6.18
2022-11-27T12:16:41.369Z,6.19
2022-11-27T12:19:38.511Z,6.26
2022-11-27T12:22:37.544Z,6.31
2022-11-27T12:25:37.283Z,6.36
2022-11-27T12:28:44.363Z,6.41
2022-11-27T12:31:20.663Z,6.45
2022-11-27T12:34:24.693Z,6.55
2022-11-27T12:37:22.050Z,6.59
2022-11-27T12:40:26.159Z,6.62
2022-11-27T12:43:25.920Z,6.68
2022-11-27T12:45:58.619Z,6.73
2022-11-27T12:48:43.786Z,6.78
2022-11-27T12:51:21.030Z,6.85
2022-11-27T12:54:11.640Z,6.92
2022-11-27T12:56:50.783Z,6.95
2022-11-27T12:59:43.648Z,6.99
2022-11-27T13:02:29.530Z,7.03
2022-11-27T13:05:16.148Z,7.09
2022-11-27T13:08:26.431Z,7.07
2022-11-27T13:11:05.400Z,7.19
2022-11-27T13:13:51.096Z,7.22
2022-11-27T13:16:38.743Z,7.27
2022-11-27T13:19:42.365Z,7.31
2022-11-27T13:22:14.762Z,7.34
2022-11-27T13:24:42.021Z,7.39
2022-11-27T13:27:19.221Z,7.42
2022-11-27T13:30:05.300Z,7.46
2022-11-27T13:32:37.193Z,7.49
2022-11-27T13:35:17.693Z,7.65
2022-11-27T13:37:45.263Z,7.75
2022-11-27T13:40:28.348Z,7.79
2022-11-27T13:42:57.068Z,7.85
2022-11-27T13:45:34.837Z,7.59
2022-11-27T13:48:15.773Z,7.82
2022-11-27T13:50:46.423Z,7.85
2022-11-27T13:53:13.523Z,7.88
2022-11-27T13:55:54.446Z,7.91
2022-11-27T13:58:53.977Z,7.91
2022-11-27T14:01:25.731Z,7.94
2022-11-27T14:03:52.706Z,7.93
2022-11-27T14:06:33.921Z,7.96
2022-11-27T14:09:07.820Z,7.98
2022-11-27T14:11:47.120Z,7.98
2022-11-27T14:14:23.375Z,7.95
2022-11-27T14:16:58.313Z,8.01
2022-11-27T14:19:36.833Z,8.01
2022-11-27T14:22:33.982Z,8.04
2022-11-27T14:25:00.850Z,8.04
2022-11-27T14:27:35.730Z,8.04
2022-11-27T14:30:30.034Z,8.06
2022-11-27T14:32:56.836Z,8.06
2022-11-27T14:35:27.031Z,8.07
2022-11-27T14:37:54.025Z,8.06
2022-11-27T14:40:28.211Z,8.08
2022-11-27T14:43:10.533Z,8.08
2022-11-27T14:45:38.071Z,8.10
2022-11-27T14:48:05.075Z,8.11
2022-11-27T14:50:31.893Z,8.18
2022-11-27T14:52:58.930Z,8.15
2022-11-27T14:55:30.270Z,8.20
2022-11-27T14:58:01.574Z,8.14
2022-11-27T15:00:28.816Z,8.21
2022-11-27T15:02:56.694Z,8.21
2022-11-27T15:05:27.372Z,8.19
2022-11-27T15:07:57.526Z,8.24
2022-11-27T15:10:37.246Z,8.25
2022-11-27T15:13:07.954Z,8.21
2022-11-27T15:15:44.716Z,8.18
2022-11-27T15:18:22.293Z,8.25
2022-11-27T15:20:49.898Z,8.28
2022-11-27T15:23:31.495Z,8.28
2022-11-27T15:26:15.808Z,8.22
2022-11-27T15:28:54.302Z,8.29
2022-11-27T15:31:32.828Z,8.26
2022-11-27T15:34:22.710Z,8.27
2022-11-27T15:37:06.061Z,8.27
2022-11-27T15:39:48.691Z,8.27
2022-11-27T15:42:17.494Z,8.24
2022-11-27T15:44:46.324Z,8.26
2022-11-27T15:47:42.349Z,8.25
2022-11-27T15:50:15.647Z,8.17
2022-11-27T15:52:42.863Z,8.27
2022-11-27T15:55:15.752Z,8.25
2022-11-27T15:57:43.258Z,8.25
2022-11-27T16:00:10.942Z,8.25
2022-11-27T16:02:38.192Z,8.23
2022-11-27T16:05:07.357Z,8.24
2022-11-27T16:07:34.630Z,8.24
2022-11-27T16:10:01.556Z,8.23
2022-11-27T16:12:28.295Z,8.24
2022-11-27T16:14:55.056Z,8.25
2022-11-27T16:17:21.924Z,8.22
2022-11-27T16:19:48.761Z,8.23
2022-11-27T16:22:15.558Z,8.21
2022-11-27T16:24:42.728Z,8.22
2022-11-27T16:27:09.821Z,8.14
2022-11-27T16:29:36.583Z,8.19
2022-11-27T16:32:03.681Z,8.20
2022-11-27T16:34:30.499Z,8.21
2022-11-27T16:36:57.306Z,8.10
2022-11-27T16:39:24.919Z,8.16
2022-11-27T16:41:51.764Z,8.00
2022-11-27T16:44:18.783Z,8.15
2022-11-27T16:46:45.827Z,8.16
2022-11-27T16:49:13.212Z,8.11
2022-11-27T16:51:41.033Z,8.12
2022-11-27T16:54:10.974Z,8.12
2022-11-27T16:56:38.572Z,8.04
2022-11-27T16:59:14.468Z,8.07
2022-11-27T17:01:42.637Z,8.06
2022-11-27T17:04:18.493Z,8.05
2022-11-27T17:06:47.042Z,7.99
2022-11-27T17:09:14.261Z,7.94
2022-11-27T17:11:45.262Z,8.03
2022-11-27T17:14:12.124Z,8.03
2022-11-27T17:16:41.166Z,7.78
2022-11-27T17:19:11.685Z,7.95
2022-11-27T17:21:38.535Z,7.98
2022-11-27T17:24:14.685Z,7.97
2022-11-27T17:26:43.381Z,7.97
2022-11-27T17:29:17.305Z,8.01
2022-11-27T17:31:44.569Z,7.99
2022-11-27T17:34:14.128Z,7.96
2022-11-27T17:36:42.918Z,8.01
2022-11-27T17:39:12.645Z,8.01
2022-11-27T17:41:40.536Z,7.97
2022-11-27T17:44:08.218Z,7.97
2022-11-27T17:46:36.237Z,7.99
2022-11-27T17:49:05.081Z,7.96
2022-11-27T17:51:33.902Z,7.99
2022-11-27T17:54:02.254Z,7.95
2022-11-27T17:56:29.742Z,7.85
2022-11-27T17:58:56.553Z,7.93
2022-11-27T18:01:26.366Z,7.91
2022-11-27T18:04:03.504Z,7.85
2022-11-27T18:06:31.260Z,7.90
2022-11-27T18:08:58.215Z,7.84
2022-11-27T18:11:28.861Z,7.80
2022-11-27T18:13:55.707Z,7.88
2022-11-27T18:16:30.556Z,7.90
2022-11-27T18:18:59.293Z,7.90
2022-11-27T18:21:28.395Z,7.92
2022-11-27T18:27:07.045Z,7.90
2022-11-27T18:29:30.047Z,7.87
2022-11-27T18:31:56.875Z,7.84
2022-11-27T18:34:23.784Z,7.83
2022-11-27T18:36:50.664Z,7.83
2022-11-27T18:39:17.507Z,7.86
2022-11-27T18:41:44.370Z,7.76
2022-11-27T18:44:13.190Z,7.82
2022-11-27T18:46:40.174Z,7.82
2022-11-27T18:49:06.938Z,7.71
2022-11-27T18:51:33.732Z,7.72
2022-11-27T18:54:00.896Z,7.77
2022-11-27T18:56:30.629Z,7.66
2022-11-27T18:59:01.888Z,7.78
2022-11-27T19:01:30.713Z,7.81
2022-11-27T19:04:00.558Z,7.80
2022-11-27T19:06:29.794Z,7.69
2022-11-27T19:09:00.147Z,7.74
2022-11-27T19:11:28.572Z,7.76
2022-11-27T19:13:56.591Z,7.74
2022-11-27T19:16:31.242Z,7.76
2022-11-27T19:18:59.990Z,7.74
2022-11-27T19:21:29.768Z,7.74
2022-11-27T19:23:59.296Z,7.73
2022-11-27T19:26:30.187Z,7.71
2022-11-27T19:29:00.423Z,7.72
2022-11-27T19:31:27.631Z,7.71
2022-11-27T19:33:58.758Z,7.61
2022-11-27T19:36:26.286Z,7.65
2022-11-27T19:39:03.521Z,7.62
2022-11-27T19:41:30.854Z,7.64
2022-11-27T19:43:57.650Z,7.68
2022-11-27T19:46:28.396Z,7.65
2022-11-27T19:48:58.234Z,7.66
2022-11-27T19:51:27.200Z,7.62
2022-11-27T19:53:54.872Z,7.55
2022-11-27T19:56:21.729Z,7.58
2022-11-27T19:58:48.548Z,7.57
2022-11-27T20:01:19.061Z,7.65
2022-11-27T20:03:47.682Z,7.65
2022-11-27T20:06:21.813Z,7.61
2022-11-27T20:08:51.096Z,7.58
2022-11-27T20:11:21.846Z,7.60
2022-11-27T20:13:49.133Z,7.61
2022-11-27T20:16:20.319Z,7.63
2022-11-27T20:18:47.342Z,7.59
2022-11-27T20:21:21.280Z,7.60
2022-11-27T20:23:50.252Z,7.59
2022-11-27T20:26:26.713Z,7.59
2022-11-27T20:28:54.377Z,7.61
2022-11-27T20:31:31.001Z,7.62
2022-11-27T20:34:02.077Z,7.60
2022-11-27T20:36:31.441Z,7.64
2022-11-27T20:39:00.344Z,7.64
2022-11-27T20:41:27.801Z,7.57
2022-11-27T20:44:00.237Z,7.64
2022-11-27T20:46:28.207Z,7.61
2022-11-27T20:48:55.949Z,7.66
2022-11-27T20:51:28.510Z,7.66
2022-11-27T20:53:58.293Z,7.60
2022-11-27T20:56:25.940Z,7.55
2022-11-27T20:58:52.746Z,7.54
2022-11-27T21:01:27.065Z,7.60
2022-11-27T21:03:54.998Z,7.61
2022-11-27T21:06:26.526Z,7.64
2022-11-27T21:08:54.427Z,7.56
2022-11-27T21:11:25.429Z,7.56
2022-11-27T21:14:05.801Z,7.60
2022-11-27T21:16:36.700Z,7.58
2022-11-27T21:19:07.882Z,7.56
2022-11-27T21:21:34.819Z,7.59
2022-11-27T21:24:01.719Z,7.57
2022-11-27T21:26:29.386Z,7.61
2022-11-27T21:28:56.299Z,7.67
2022-11-27T21:31:26.542Z,7.59
2022-11-27T21:33:57.054Z,7.58
2022-11-27T21:36:27.703Z,7.59
2022-11-27T21:38:54.942Z,7.52
2022-11-27T21:41:21.797Z,7.55
2022-11-27T21:43:49.686Z,7.51
2022-11-27T21:46:19.912Z,7.58
2022-11-27T21:48:48.874Z,7.54
2022-11-27T21:51:16.328Z,7.55
2022-11-27T21:53:45.422Z,7.58
2022-11-27T21:56:15.808Z,7.62
2022-11-27T21:58:43.511Z,7.53
2022-11-27T22:01:20.803Z,7.52
2022-11-27T22:03:51.323Z,7.48
2022-11-27T22:06:19.070Z,7.45
2022-11-27T22:08:49.235Z,7.52
2022-11-27T22:11:21.041Z,7.56
2022-11-27T22:13:48.344Z,7.50
2022-11-27T22:16:19.615Z,7.49
2022-11-27T22:18:47.198Z,7.49
2022-11-27T22:21:17.766Z,7.48
2022-11-27T22:23:44.989Z,7.49
2022-11-27T22:26:20.763Z,7.48
2022-11-27T22:28:48.748Z,7.45
2022-11-27T22:31:29.552Z,7.52
2022-11-27T22:33:57.302Z,7.49
2022-11-27T22:36:30.244Z,7.52
2022-11-27T22:38:58.933Z,7.52
2022-11-27T22:41:28.482Z,7.44
2022-11-27T22:43:55.611Z,7.52
2022-11-27T22:46:29.540Z,7.51
2022-11-27T22:48:58.205Z,7.49
2022-11-27T22:51:27.027Z,7.48
2022-11-27T22:53:54.192Z,7.48
2022-11-27T22:56:21.306Z,7.48
2022-11-27T22:58:48.358Z,7.46
2022-11-27T23:01:23.184Z,7.48
2022-11-27T23:03:50.319Z,7.44
2022-11-27T23:06:19.822Z,7.49
2022-11-27T23:08:47.629Z,7.46
2022-11-27T23:11:21.384Z,7.42
2022-11-27T23:13:49.988Z,7.47
2022-11-27T23:16:18.349Z,7.47
2022-11-27T23:18:45.538Z,7.45
2022-11-27T23:21:19.232Z,7.49
2022-11-27T23:23:46.972Z,7.48
2022-11-27T23:26:18.565Z,7.56
2022-11-27T23:28:46.911Z,7.51
2022-11-27T23:31:31.909Z,7.53
2022-11-27T23:34:03.954Z,7.46
2022-11-27T23:36:32.244Z,7.46
2022-11-27T23:39:05.318Z,7.49
2022-11-27T23:41:32.539Z,7.47
2022-11-27T23:43:59.344Z,7.48
2022-11-27T23:46:29.184Z,7.48
2022-11-27T23:48:58.000Z,7.49
2022-11-27T23:51:29.467Z,7.48
2022-11-27T23:53:56.711Z,7.47
2022-11-27T23:56:26.706Z,7.51
2022-11-27T23:58:55.129Z,7.43
